Alma, IL (62807)

02:29 PM CST del 02 Marzo 2015 (GMT -0600)
Alma Weather Station | Change Station
CLOSE
Current Station
Stazione meteo personale
Location: Alma, IL
Altitudine: 595 ft
Stazioni meteo nelle vicinanze

Alt. 595 ft 38.71 °N, 88.91 °W | Updated 1 minute ago

Sereno
Sereno
34.5 °F
Sembra 34 °F
N
0.0
Vento Variabile Vento da ENE
Gusts 5.0 mph

Oggi
Massima -- | Minima -- °F
--% Possibilità di precip.
Ieri
Massima -- | Minima -- °F
Precip. -- in
6:26 AM 5:49 PM
Gobba a ponente, 93% visible
Pressione 30.46 in
Visibilità 10.0 miglia
Nuvole Sereno
Raffreddamento del vento 34 °F
Punto di rugiada 22 °F
Umidità 60%
Piovosità 0.00 in
Spessore del manto nevoso Non disponibile.
Raggi UV 4 fuori da 12
Polline 2.10 fuori da 12
Qualità dell'aria Non disponibile.
Flu Activity Non disponibile.
METAR KSLO 022015Z AUTO 07004KT 10SM CLR 02/M08 A3046 RMK AO2 T00181084

More Conditions Fewer Conditions

Pressione 30.46 in
Visibilità 10.0 miglia
Nuvole Sereno
Raffreddamento del vento 34 °F
Punto di rugiada 22 °F
Umidità 60%
Piovosità 0.00 in
Spessore del manto nevoso Non disponibile.
Raggi UV 4 fuori da 12
Polline 2.10 fuori da 12
Qualità dell'aria Non disponibile.
Flu Activity Non disponibile.
METAR KSLO 022015Z AUTO 07004KT 10SM CLR 02/M08 A3046 RMK AO2 T00181084

More Conditions Fewer Conditions

10-Day Weather Forecast

Almanac

Astronomia

Mar. 02, 2015 Alba Tramonto
Ora attuale
Crepuscolo civile
Crepuscolo nautico
Crepuscolo astronomico
Luna
Estensione della luce visibile
Lunghezza del giorno
Tomorrow will be .
, % of the Moon is Illuminated

Gli estremi di oggi

State Highs State Lows

Community

WunderPhotos

Upload Photos

1,801,938 foto caricate!

WunderBlogs® & News

Nearby

Qualità dell'aria

  Qualità dell'aria Indice AQ Inquinante
Not available.

Profondità neve

Stazione Profondità Altitudine

Attività sismica

Città  Distanza Mag. Data & Ora
Minimo Magnitudo Mostrato è 2.5.

Temperature delle acque costiere

Località Temperatura

Stazioni meteo nelle vicinanze